Time;durP1;ratioP1;P1;durP2;ratioP2;P2;SDS_P1;SDS_P2;PMS_P1;PMS_P2;Temp;Humidity;BMP_temperature;BMP_pressure;BME280_temperature;BME280_humidity;BME280_pressure;Samples;Min_cycle;Max_cycle;Signal;HPM_P1;HPM_P2
2022/02/12 00:01:18;;;;;;;11.00;3.47;;;0.00;99.90;;;;;;6695288;88;20211;-76
2022/02/12 00:11:19;;;;;;;13.40;2.60;;;-0.10;99.90;;;;;;6679992;89;20207;-76
2022/02/12 00:21:24;;;;;;;11.75;2.90;;;-0.10;99.90;;;;;;6681275;88;20630;-78
2022/02/12 00:31:24;;;;;;;12.18;3.60;;;-0.10;99.90;;;;;;6704644;88;20207;-77
2022/02/12 00:41:25;;;;;;;7.43;2.72;;;-0.20;99.90;;;;;;6700707;88;20194;-76
2022/02/12 00:51:25;;;;;;;12.13;2.92;;;-0.20;99.90;;;;;;6700007;88;20240;-77
2022/02/12 01:01:26;;;;;;;9.02;2.90;;;-0.40;99.90;;;;;;6688165;88;20558;-77
2022/02/12 01:11:27;;;;;;;9.77;2.40;;;-0.40;99.90;;;;;;6687198;88;20194;-77
2022/02/12 01:21:27;;;;;;;13.30;3.03;;;-0.40;99.90;;;;;;6691640;88;20241;-76
2022/02/12 01:31:28;;;;;;;10.98;2.75;;;-0.60;99.90;;;;;;6693150;88;20558;-77
2022/02/12 01:41:28;;;;;;;11.27;2.60;;;-0.60;99.90;;;;;;6688873;88;20661;-78
2022/02/12 01:51:29;;;;;;;11.93;2.97;;;-0.70;99.90;;;;;;6691506;88;20294;-77
2022/02/12 02:01:30;;;;;;;15.90;3.15;;;-0.60;99.90;;;;;;6700553;88;20566;-77
2022/02/12 02:11:30;;;;;;;11.60;2.73;;;-0.70;99.90;;;;;;6709904;88;20223;-77
2022/02/12 02:21:33;;;;;;;13.90;3.00;;;-0.70;99.90;;;;;;6701411;88;21006;-77
2022/02/12 02:31:34;;;;;;;11.70;2.72;;;-0.80;99.90;;;;;;6691564;88;20248;-77
2022/02/12 02:41:35;;;;;;;10.52;3.15;;;-0.80;99.90;;;;;;6691323;88;20222;-77
2022/02/12 03:01:55;;;;;;;13.60;3.00;;;-0.90;99.90;;;;;;6690646;88;20190;-76
2022/02/12 03:11:55;;;;;;;7.28;2.55;;;-0.90;99.90;;;;;;6690413;88;20203;-76
2022/02/12 03:21:56;;;;;;;13.45;3.20;;;-0.90;99.90;;;;;;6692795;88;20212;-77
2022/02/12 03:31:56;;;;;;;8.63;2.90;;;-0.90;99.90;;;;;;6689766;88;20224;-76
2022/02/12 03:41:57;;;;;;;12.75;3.03;;;-0.90;99.90;;;;;;6689462;88;20662;-77
2022/02/12 03:51:57;;;;;;;11.77;2.72;;;-1.00;99.90;;;;;;6690171;88;20886;-77
2022/02/12 04:01:58;;;;;;;10.25;2.78;;;-1.00;99.90;;;;;;6691433;89;20246;-78
2022/02/12 04:11:59;;;;;;;13.73;2.95;;;-1.00;99.90;;;;;;6685767;89;20644;-77
2022/02/12 04:21:59;;;;;;;11.23;3.03;;;-1.10;99.90;;;;;;6685551;89;20216;-77
2022/02/12 04:32:00;;;;;;;12.50;3.25;;;-1.20;99.90;;;;;;6685123;89;20207;-78
2022/02/12 04:42:00;;;;;;;15.75;3.30;;;-1.20;99.90;;;;;;6690698;88;20508;-78
2022/02/12 04:52:02;;;;;;;11.80;3.15;;;-1.10;99.90;;;;;;6691053;88;20186;-77
2022/02/12 05:02:04;;;;;;;15.27;3.80;;;-1.30;99.90;;;;;;6691809;88;21095;-78
2022/02/12 05:12:05;;;;;;;11.70;3.10;;;-1.20;99.90;;;;;;6691010;88;20332;-77
2022/02/12 05:22:06;;;;;;;13.93;3.42;;;-1.20;99.90;;;;;;6690644;88;20224;-77
2022/02/12 05:32:07;;;;;;;12.07;3.08;;;-1.30;99.90;;;;;;6681024;88;20214;-77
2022/02/12 05:52:11;;;;;;;11.88;3.58;;;-1.30;99.90;;;;;;6717311;88;20200;-77
2022/02/12 06:02:12;;;;;;;9.38;3.35;;;-1.20;99.90;;;;;;6724178;88;20667;-77
2022/02/12 06:12:12;;;;;;;10.55;3.70;;;-1.30;99.90;;;;;;6712811;88;20535;-77
2022/02/12 06:22:13;;;;;;;13.60;3.90;;;-1.40;99.90;;;;;;6711817;88;20189;-77
2022/02/12 06:32:13;;;;;;;13.70;3.95;;;-1.50;99.90;;;;;;6712928;88;20595;-77
2022/02/12 06:42:14;;;;;;;15.73;3.90;;;-1.50;99.90;;;;;;6713422;88;20204;-76
2022/02/12 06:52:15;;;;;;;10.80;4.32;;;-1.40;99.90;;;;;;6713787;88;20208;-76
2022/02/12 07:02:16;;;;;;;12.57;3.95;;;-1.40;99.90;;;;;;6714997;88;20178;-77
2022/02/12 07:12:17;;;;;;;20.35;4.32;;;-1.30;99.90;;;;;;6714914;88;20204;-77
2022/02/12 07:22:24;;;;;;;12.18;4.30;;;-1.10;99.90;;;;;;6717530;88;20245;-76
2022/02/12 07:32:24;;;;;;;15.32;4.90;;;-1.10;99.90;;;;;;6723297;88;20185;-77
2022/02/12 07:42:25;;;;;;;16.15;5.37;;;-1.00;99.90;;;;;;6718764;88;20206;-77
2022/02/12 07:52:25;;;;;;;21.10;5.78;;;-0.80;99.90;;;;;;6715519;88;20511;-76
2022/02/12 08:02:26;;;;;;;15.75;5.93;;;-0.60;99.90;;;;;;6722686;88;20823;-75
2022/02/12 08:12:27;;;;;;;16.33;5.28;;;-0.30;99.90;;;;;;6726505;88;20289;-77
2022/02/12 08:22:28;;;;;;;14.70;4.35;;;0.00;99.90;;;;;;6719874;88;20222;-76
2022/02/12 08:32:28;;;;;;;9.88;3.47;;;0.60;99.90;;;;;;6723973;88;20202;-76
2022/02/12 08:42:29;;;;;;;13.52;4.50;;;0.80;99.90;;;;;;6719363;88;20202;-77
2022/02/12 08:52:30;;;;;;;14.23;5.20;;;0.90;99.90;;;;;;6708726;88;20198;-75
2022/02/12 09:02:30;;;;;;;16.87;5.12;;;1.10;99.90;;;;;;6710088;88;20598;-76
2022/02/12 09:12:31;;;;;;;17.42;4.28;;;1.60;99.90;;;;;;6703910;88;20218;-75
2022/02/12 09:22:31;;;;;;;11.35;3.70;;;1.90;99.90;;;;;;6708141;88;20248;-75
2022/02/12 09:32:32;;;;;;;16.02;5.72;;;2.50;99.90;;;;;;6703817;88;20211;-75
2022/02/12 09:42:35;;;;;;;12.27;2.87;;;3.10;99.90;;;;;;6700305;88;20198;-75
2022/02/12 09:52:41;;;;;;;5.90;1.50;;;3.70;99.90;;;;;;6709039;88;20177;-75
2022/02/12 10:02:44;;;;;;;12.93;2.55;;;3.50;99.90;;;;;;6705035;88;20627;-74
2022/02/12 10:12:45;;;;;;;10.45;2.42;;;3.90;99.90;;;;;;6706599;88;20281;-74
2022/02/12 10:22:46;;;;;;;9.05;2.30;;;4.60;99.90;;;;;;6705577;88;20206;-74
2022/02/12 10:32:47;;;;;;;8.77;2.25;;;4.80;99.90;;;;;;6706258;88;20251;-74
2022/02/12 10:42:50;;;;;;;10.88;2.28;;;4.70;99.90;;;;;;6708027;88;20205;-74
2022/02/12 10:52:53;;;;;;;8.73;2.75;;;5.10;99.90;;;;;;6706480;88;20193;-74
2022/02/12 11:02:55;;;;;;;4.55;1.42;;;5.50;99.90;;;;;;6707146;88;20244;-74
2022/02/12 11:12:58;;;;;;;9.88;2.60;;;4.80;99.90;;;;;;6708313;88;20318;-74
2022/02/12 11:23:20;;;;;;;6.53;2.20;;;5.30;99.90;;;;;;6705989;88;20710;-74
2022/02/12 11:33:23;;;;;;;10.43;2.70;;;5.30;99.90;;;;;;6705030;88;20282;-74
2022/02/12 11:53:34;;;;;;;10.65;2.90;;;5.50;99.90;;;;;;6719179;88;20201;-76
2022/02/12 12:04:16;;;;;;;10.57;2.90;;;6.10;99.90;;;;;;6711727;88;20200;-77
2022/02/12 12:14:23;;;;;;;8.68;2.72;;;6.40;99.90;;;;;;6695814;88;20222;-77
2022/02/12 12:24:24;;;;;;;9.38;2.60;;;6.80;99.90;;;;;;6701098;88;20220;-77
2022/02/12 12:34:25;;;;;;;9.70;2.20;;;6.80;99.90;;;;;;6705097;88;20186;-76
2022/02/12 12:44:27;;;;;;;9.85;2.72;;;7.00;99.90;;;;;;6699084;88;20252;-75
2022/02/12 12:54:32;;;;;;;6.20;2.00;;;7.00;99.90;;;;;;6704975;88;20766;-77
2022/02/12 13:04:38;;;;;;;10.60;2.70;;;7.10;99.90;;;;;;6707015;88;20179;-76
2022/02/12 13:14:45;;;;;;;7.23;2.27;;;8.00;99.90;;;;;;6698279;88;20198;-75
2022/02/12 13:24:55;;;;;;;7.10;2.33;;;7.60;99.90;;;;;;6689921;88;20592;-76
2022/02/12 13:34:57;;;;;;;8.02;2.50;;;7.10;99.90;;;;;;6705219;88;20208;-77
2022/02/12 13:44:59;;;;;;;8.07;2.20;;;7.80;99.90;;;;;;6698067;88;20930;-76
2022/02/12 13:55:09;;;;;;;7.93;2.40;;;9.30;99.90;;;;;;6702749;88;20215;-75
2022/02/12 14:05:10;;;;;;;7.97;2.42;;;9.60;98.60;;;;;;6703596;88;20204;-77
2022/02/12 14:15:10;;;;;;;10.77;2.47;;;10.30;97.90;;;;;;6707350;88;20625;-76
2022/02/12 14:25:11;;;;;;;9.35;2.05;;;9.10;99.10;;;;;;6702455;88;20307;-77
2022/02/12 14:35:12;;;;;;;8.00;2.10;;;8.80;98.50;;;;;;6707263;88;20336;-77
2022/02/12 14:45:12;;;;;;;5.85;1.92;;;8.90;98.80;;;;;;6693827;88;20211;-77
2022/02/12 14:55:13;;;;;;;2.87;1.33;;;8.10;99.90;;;;;;6703507;88;20191;-76
2022/02/12 15:05:13;;;;;;;8.27;2.25;;;7.50;99.90;;;;;;6696944;88;20234;-77
2022/02/12 15:15:14;;;;;;;7.87;1.85;;;7.80;99.90;;;;;;6707372;88;20333;-76
2022/02/12 15:25:14;;;;;;;9.00;2.30;;;7.20;99.90;;;;;;6705196;88;20221;-77
2022/02/12 15:35:15;;;;;;;6.55;2.15;;;7.50;99.90;;;;;;6692799;88;20317;-77
2022/02/12 15:45:16;;;;;;;6.65;1.98;;;7.10;99.90;;;;;;6688647;88;20297;-76
2022/02/12 15:55:17;;;;;;;5.05;1.80;;;7.00;99.90;;;;;;6696891;88;20240;-75
2022/02/12 16:05:18;;;;;;;6.82;2.40;;;6.70;99.90;;;;;;6699251;88;20583;-76
2022/02/12 16:15:18;;;;;;;4.60;2.00;;;6.70;99.90;;;;;;6702740;88;20183;-76
2022/02/12 16:25:19;;;;;;;7.80;2.30;;;6.30;99.90;;;;;;6707575;88;20191;-75
2022/02/12 16:35:20;;;;;;;4.90;1.77;;;6.00;99.90;;;;;;6702777;88;20182;-76
2022/02/12 16:45:20;;;;;;;7.15;1.62;;;5.80;99.90;;;;;;6707447;88;20224;-76
2022/02/12 16:55:23;;;;;;;6.22;1.70;;;5.70;99.90;;;;;;6706521;88;20703;-76
2022/02/12 17:05:29;;;;;;;5.55;1.90;;;5.40;99.90;;;;;;6708423;88;20204;-76
2022/02/12 17:15:29;;;;;;;5.87;1.70;;;5.30;99.90;;;;;;6704603;88;20746;-77
2022/02/12 17:25:30;;;;;;;6.07;1.62;;;5.10;99.90;;;;;;6710173;88;20247;-76
2022/02/12 17:35:31;;;;;;;4.70;1.70;;;4.90;99.90;;;;;;6702643;88;20203;-76
2022/02/12 17:45:31;;;;;;;8.80;2.40;;;4.70;99.90;;;;;;6687716;77;21010;-76
2022/02/12 17:55:32;;;;;;;4.97;2.40;;;4.50;99.90;;;;;;6634638;88;20203;-77
2022/02/12 18:05:33;;;;;;;9.20;2.83;;;4.40;99.90;;;;;;6619607;89;20197;-77
2022/02/12 18:15:36;;;;;;;6.80;2.50;;;4.30;99.90;;;;;;6628116;89;20231;-77
2022/02/12 18:25:36;;;;;;;7.55;2.60;;;4.20;99.90;;;;;;6642180;88;20221;-77
2022/02/12 18:35:37;;;;;;;8.88;3.10;;;4.00;99.90;;;;;;6636218;88;20271;-77
2022/02/12 18:45:38;;;;;;;8.75;3.00;;;3.90;99.90;;;;;;6646729;89;20245;-77
2022/02/12 18:55:38;;;;;;;9.52;3.47;;;3.70;99.90;;;;;;6630924;89;20695;-77
2022/02/12 19:05:39;;;;;;;8.05;3.30;;;3.60;99.90;;;;;;6614962;89;20208;-77
2022/02/12 19:15:39;;;;;;;8.93;3.67;;;3.60;99.90;;;;;;6627997;89;20644;-79
2022/02/12 19:25:40;;;;;;;7.82;3.10;;;3.50;99.90;;;;;;6633573;89;20201;-77
2022/02/12 19:35:41;;;;;;;8.90;3.78;;;3.40;99.90;;;;;;6633250;88;20617;-77
2022/02/12 19:45:41;;;;;;;12.37;4.72;;;3.40;99.90;;;;;;6672377;88;20195;-77
2022/02/12 19:55:44;;;;;;;10.32;4.00;;;3.30;99.90;;;;;;6681345;88;20201;-77
2022/02/12 20:05:46;;;;;;;10.32;4.18;;;3.10;99.90;;;;;;6615945;88;20903;-77
2022/02/12 20:15:47;;;;;;;12.43;4.10;;;3.10;99.90;;;;;;6629761;89;20763;-77
2022/02/12 20:25:47;;;;;;;13.68;5.82;;;3.00;99.90;;;;;;6620737;89;20209;-77
2022/02/12 20:35:48;;;;;;;9.98;4.10;;;2.80;99.90;;;;;;6629987;89;20177;-77
2022/02/12 20:45:49;;;;;;;9.88;4.20;;;2.80;99.90;;;;;;6631097;89;20226;-77
2022/02/12 20:55:49;;;;;;;10.38;4.62;;;2.60;99.90;;;;;;6634727;89;20220;-76
2022/02/12 21:05:50;;;;;;;8.52;3.83;;;2.50;99.90;;;;;;6632484;89;20291;-76
2022/02/12 21:15:50;;;;;;;7.62;4.05;;;2.40;99.90;;;;;;6638556;88;20366;-76
2022/02/12 21:25:51;;;;;;;11.68;4.80;;;2.30;99.90;;;;;;6633287;88;20678;-77
2022/02/12 21:35:51;;;;;;;9.77;4.60;;;2.20;99.90;;;;;;6634041;89;20615;-76
2022/02/12 21:45:52;;;;;;;10.05;3.55;;;2.30;99.90;;;;;;6637213;89;20216;-77
2022/02/12 21:55:53;;;;;;;9.52;3.75;;;2.20;99.90;;;;;;6651380;89;20220;-77
2022/02/12 22:05:54;;;;;;;11.07;4.87;;;2.30;99.90;;;;;;6646370;88;20245;-76
2022/02/12 22:15:54;;;;;;;9.75;4.37;;;2.10;99.90;;;;;;6651321;89;20188;-76
2022/02/12 22:25:55;;;;;;;9.82;3.72;;;2.10;99.90;;;;;;6644152;89;20198;-76
2022/02/12 22:35:56;;;;;;;7.68;3.10;;;2.00;99.90;;;;;;6629870;89;20205;-77
2022/02/12 22:45:56;;;;;;;10.97;4.07;;;2.00;99.90;;;;;;6618832;89;20284;-76
2022/02/12 22:55:57;;;;;;;9.73;3.53;;;2.10;99.90;;;;;;6624405;89;20575;-77
2022/02/12 23:05:57;;;;;;;8.65;3.35;;;2.00;99.90;;;;;;6622985;89;20229;-76
2022/02/12 23:16:00;;;;;;;7.70;3.40;;;1.90;99.90;;;;;;6638914;88;20190;-76
2022/02/12 23:26:01;;;;;;;11.43;3.50;;;1.90;99.90;;;;;;6648473;88;20506;-76
2022/02/12 23:36:02;;;;;;;7.62;3.62;;;1.80;99.90;;;;;;6629134;89;20190;-77
2022/02/12 23:46:02;;;;;;;9.85;3.22;;;1.70;99.90;;;;;;6635882;77;20708;-74
2022/02/12 23:56:04;;;;;;;7.93;3.20;;;1.80;99.90;;;;;;6623641;88;20336;-75
